sensor_id;sensor_type;location;lat;lon;timestamp;pressure;altitude;pressure_sealevel;temperature
27715;BMP280;16051;53.024;8.630;2023-02-26T00:02:55;101707.09;;;0.12
27715;BMP280;16051;53.024;8.630;2023-02-26T00:06:59;101720.28;;;0.06
27715;BMP280;16051;53.024;8.630;2023-02-26T00:11:33;101717.59;;;0.10
27715;BMP280;16051;53.024;8.630;2023-02-26T00:15:43;101728.84;;;0.12
27715;BMP280;16051;53.024;8.630;2023-02-26T00:20:40;101732.75;;;0.11
27715;BMP280;16051;53.024;8.630;2023-02-26T00:24:45;101747.03;;;0.04
27715;BMP280;16051;53.024;8.630;2023-02-26T00:28:48;101748.13;;;-0.04
27715;BMP280;16051;53.024;8.630;2023-02-26T00:33:11;101744.63;;;-0.05
27715;BMP280;16051;53.024;8.630;2023-02-26T00:37:36;101756.69;;;-0.02
27715;BMP280;16051;53.024;8.630;2023-02-26T00:41:42;101748.41;;;-0.16
27715;BMP280;16051;53.024;8.630;2023-02-26T00:46:00;101754.63;;;-0.16
27715;BMP280;16051;53.024;8.630;2023-02-26T00:50:14;101762.69;;;-0.23
27715;BMP280;16051;53.024;8.630;2023-02-26T00:54:40;101764.69;;;-0.16
27715;BMP280;16051;53.024;8.630;2023-02-26T00:58:53;101767.34;;;-0.23
27715;BMP280;16051;53.024;8.630;2023-02-26T01:02:56;101769.28;;;-0.24
27715;BMP280;16051;53.024;8.630;2023-02-26T01:06:59;101770.81;;;-0.26
27715;BMP280;16051;53.024;8.630;2023-02-26T01:11:02;101777.38;;;-0.27
27715;BMP280;16051;53.024;8.630;2023-02-26T01:15:07;101780.44;;;-0.29
27715;BMP280;16051;53.024;8.630;2023-02-26T01:19:21;101792.94;;;-0.24
27715;BMP280;16051;53.024;8.630;2023-02-26T01:23:30;101796.72;;;-0.32
27715;BMP280;16051;53.024;8.630;2023-02-26T01:27:35;101797.91;;;-0.30
27715;BMP280;16051;53.024;8.630;2023-02-26T01:31:49;101802.06;;;-0.39
27715;BMP280;16051;53.024;8.630;2023-02-26T01:36:00;101801.75;;;-0.34
27715;BMP280;16051;53.024;8.630;2023-02-26T01:40:49;101802.84;;;-0.39
27715;BMP280;16051;53.024;8.630;2023-02-26T01:45:00;101799.97;;;-0.53
27715;BMP280;16051;53.024;8.630;2023-02-26T01:49:12;101804.72;;;-0.43
27715;BMP280;16051;53.024;8.630;2023-02-26T01:53:20;101805.91;;;-0.44
27715;BMP280;16051;53.024;8.630;2023-02-26T01:57:24;101813.56;;;-0.50
27715;BMP280;16051;53.024;8.630;2023-02-26T02:01:26;101825.84;;;-0.63
27715;BMP280;16051;53.024;8.630;2023-02-26T02:05:34;101830.91;;;-0.58
27715;BMP280;16051;53.024;8.630;2023-02-26T02:09:44;101833.63;;;-0.58
27715;BMP280;16051;53.024;8.630;2023-02-26T02:14:03;101846.91;;;-0.53
27715;BMP280;16051;53.024;8.630;2023-02-26T02:18:17;101846.50;;;-0.55
27715;BMP280;16051;53.024;8.630;2023-02-26T02:22:50;101866.69;;;-0.52
27715;BMP280;16051;53.024;8.630;2023-02-26T02:27:07;101864.28;;;-0.57
27715;BMP280;16051;53.024;8.630;2023-02-26T02:31:18;101869.13;;;-0.43
27715;BMP280;16051;53.024;8.630;2023-02-26T02:35:40;101873.38;;;-0.42
27715;BMP280;16051;53.024;8.630;2023-02-26T02:39:49;101867.56;;;-0.44
27715;BMP280;16051;53.024;8.630;2023-02-26T02:43:54;101884.91;;;-0.53
27715;BMP280;16051;53.024;8.630;2023-02-26T02:48:05;101901.59;;;-0.51
27715;BMP280;16051;53.024;8.630;2023-02-26T02:52:16;101892.59;;;-0.58
27715;BMP280;16051;53.024;8.630;2023-02-26T02:56:29;101898.03;;;-0.58
27715;BMP280;16051;53.024;8.630;2023-02-26T03:00:49;101904.53;;;-0.63
27715;BMP280;16051;53.024;8.630;2023-02-26T03:04:53;101904.63;;;-0.56
27715;BMP280;16051;53.024;8.630;2023-02-26T03:08:56;101907.66;;;-0.61
27715;BMP280;16051;53.024;8.630;2023-02-26T03:12:59;101918.50;;;-0.61
27715;BMP280;16051;53.024;8.630;2023-02-26T03:17:24;101918.63;;;-0.54
27715;BMP280;16051;53.024;8.630;2023-02-26T03:21:38;101918.84;;;-0.66
27715;BMP280;16051;53.024;8.630;2023-02-26T03:25:49;101922.69;;;-0.67
27715;BMP280;16051;53.024;8.630;2023-02-26T03:29:57;101932.41;;;-0.66
27715;BMP280;16051;53.024;8.630;2023-02-26T03:34:07;101940.56;;;-0.66
27715;BMP280;16051;53.024;8.630;2023-02-26T03:38:23;101946.00;;;-0.66
27715;BMP280;16051;53.024;8.630;2023-02-26T03:42:33;101954.38;;;-0.74
27715;BMP280;16051;53.024;8.630;2023-02-26T03:46:53;101956.78;;;-0.69
27715;BMP280;16051;53.024;8.630;2023-02-26T03:51:02;101974.84;;;-0.80
27715;BMP280;16051;53.024;8.630;2023-02-26T03:55:12;101980.72;;;-0.75
27715;BMP280;16051;53.024;8.630;2023-02-26T03:59:16;101971.16;;;-0.91
27715;BMP280;16051;53.024;8.630;2023-02-26T04:03:44;101989.41;;;-0.88
27715;BMP280;16051;53.024;8.630;2023-02-26T04:07:48;101991.91;;;-0.80
27715;BMP280;16051;53.024;8.630;2023-02-26T04:11:53;101995.44;;;-0.76
27715;BMP280;16051;53.024;8.630;2023-02-26T04:16:21;102007.84;;;-0.75
27715;BMP280;16051;53.024;8.630;2023-02-26T04:20:24;102002.81;;;-0.76
27715;BMP280;16051;53.024;8.630;2023-02-26T04:24:26;102024.94;;;-0.74
27715;BMP280;16051;53.024;8.630;2023-02-26T04:28:29;102017.13;;;-0.76
27715;BMP280;16051;53.024;8.630;2023-02-26T04:32:31;102035.84;;;-0.71
27715;BMP280;16051;53.024;8.630;2023-02-26T04:36:33;102037.41;;;-0.70
27715;BMP280;16051;53.024;8.630;2023-02-26T04:40:43;102047.78;;;-0.75
27715;BMP280;16051;53.024;8.630;2023-02-26T04:44:48;102045.25;;;-0.87
27715;BMP280;16051;53.024;8.630;2023-02-26T04:48:50;102046.56;;;-0.78
27715;BMP280;16051;53.024;8.630;2023-02-26T04:52:52;102054.84;;;-0.71
27715;BMP280;16051;53.024;8.630;2023-02-26T04:56:56;102057.25;;;-0.66
27715;BMP280;16051;53.024;8.630;2023-02-26T05:00:59;102061.66;;;-0.80
27715;BMP280;16051;53.024;8.630;2023-02-26T05:05:02;102069.94;;;-0.73
27715;BMP280;16051;53.024;8.630;2023-02-26T05:09:05;102081.44;;;-0.80
27715;BMP280;16051;53.024;8.630;2023-02-26T05:13:10;102077.94;;;-0.80
27715;BMP280;16051;53.024;8.630;2023-02-26T05:17:13;102092.53;;;-0.88
27715;BMP280;16051;53.024;8.630;2023-02-26T05:21:15;102089.69;;;-0.95
27715;BMP280;16051;53.024;8.630;2023-02-26T05:25:18;102104.44;;;-0.93
27715;BMP280;16051;53.024;8.630;2023-02-26T05:29:29;102107.34;;;-0.82
27715;BMP280;16051;53.024;8.630;2023-02-26T05:33:33;102109.03;;;-0.97
27715;BMP280;16051;53.024;8.630;2023-02-26T05:37:35;102115.88;;;-0.84
27715;BMP280;16051;53.024;8.630;2023-02-26T05:41:37;102116.09;;;-0.92
27715;BMP280;16051;53.024;8.630;2023-02-26T05:45:39;102118.72;;;-0.96
27715;BMP280;16051;53.024;8.630;2023-02-26T05:49:48;102118.78;;;-0.92
27715;BMP280;16051;53.024;8.630;2023-02-26T05:53:50;102121.72;;;-1.01
27715;BMP280;16051;53.024;8.630;2023-02-26T05:57:52;102128.16;;;-0.90
27715;BMP280;16051;53.024;8.630;2023-02-26T06:01:59;102136.84;;;-0.81
27715;BMP280;16051;53.024;8.630;2023-02-26T06:06:02;102145.59;;;-0.91
27715;BMP280;16051;53.024;8.630;2023-02-26T06:10:06;102159.09;;;-0.94
27715;BMP280;16051;53.024;8.630;2023-02-26T06:14:09;102166.38;;;-0.98
27715;BMP280;16051;53.024;8.630;2023-02-26T06:18:11;102172.19;;;-0.96
27715;BMP280;16051;53.024;8.630;2023-02-26T06:22:15;102188.41;;;-1.00
27715;BMP280;16051;53.024;8.630;2023-02-26T06:26:17;102178.28;;;-1.03
27715;BMP280;16051;53.024;8.630;2023-02-26T06:30:19;102185.34;;;-0.98
27715;BMP280;16051;53.024;8.630;2023-02-26T06:34:24;102188.34;;;-1.04
27715;BMP280;16051;53.024;8.630;2023-02-26T06:38:28;102197.06;;;-0.94
27715;BMP280;16051;53.024;8.630;2023-02-26T06:42:30;102194.22;;;-1.02
27715;BMP280;16051;53.024;8.630;2023-02-26T06:46:32;102197.81;;;-0.94
27715;BMP280;16051;53.024;8.630;2023-02-26T06:50:35;102208.19;;;-1.00
27715;BMP280;16051;53.024;8.630;2023-02-26T06:54:38;102205.81;;;-1.01
27715;BMP280;16051;53.024;8.630;2023-02-26T06:58:40;102213.41;;;-0.91
27715;BMP280;16051;53.024;8.630;2023-02-26T07:02:42;102225.81;;;-0.90
27715;BMP280;16051;53.024;8.630;2023-02-26T07:06:44;102236.53;;;-0.78
27715;BMP280;16051;53.024;8.630;2023-02-26T07:10:48;102239.59;;;-0.79
27715;BMP280;16051;53.024;8.630;2023-02-26T07:14:50;102248.41;;;-0.67
27715;BMP280;16051;53.024;8.630;2023-02-26T07:18:55;102254.47;;;-0.73
27715;BMP280;16051;53.024;8.630;2023-02-26T07:22:58;102261.44;;;-0.72
27715;BMP280;16051;53.024;8.630;2023-02-26T07:27:01;102263.81;;;-0.71
27715;BMP280;16051;53.024;8.630;2023-02-26T07:31:10;102275.47;;;-0.51
27715;BMP280;16051;53.024;8.630;2023-02-26T07:35:12;102280.59;;;-0.46
27715;BMP280;16051;53.024;8.630;2023-02-26T07:39:14;102281.25;;;-0.33
27715;BMP280;16051;53.024;8.630;2023-02-26T07:43:26;102293.09;;;-0.22
27715;BMP280;16051;53.024;8.630;2023-02-26T07:47:29;102291.78;;;-0.09
27715;BMP280;16051;53.024;8.630;2023-02-26T07:51:31;102305.44;;;0.17
27715;BMP280;16051;53.024;8.630;2023-02-26T07:55:43;102303.75;;;0.32
27715;BMP280;16051;53.024;8.630;2023-02-26T07:59:47;102304.66;;;0.39
27715;BMP280;16051;53.024;8.630;2023-02-26T08:03:49;102313.13;;;0.57
27715;BMP280;16051;53.024;8.630;2023-02-26T08:07:52;102311.28;;;0.65
27715;BMP280;16051;53.024;8.630;2023-02-26T08:11:54;102320.03;;;0.77
27715;BMP280;16051;53.024;8.630;2023-02-26T08:15:58;102318.28;;;0.92
27715;BMP280;16051;53.024;8.630;2023-02-26T08:20:03;102332.16;;;1.10
27715;BMP280;16051;53.024;8.630;2023-02-26T08:24:06;102330.00;;;1.22
27715;BMP280;16051;53.024;8.630;2023-02-26T08:28:08;102342.22;;;1.35
27715;BMP280;16051;53.024;8.630;2023-02-26T08:32:12;102343.06;;;1.39
27715;BMP280;16051;53.024;8.630;2023-02-26T08:36:15;102354.47;;;1.48
27715;BMP280;16051;53.024;8.630;2023-02-26T08:40:29;102356.13;;;1.57
27715;BMP280;16051;53.024;8.630;2023-02-26T08:44:32;102364.81;;;1.66
27715;BMP280;16051;53.024;8.630;2023-02-26T08:48:44;102365.09;;;1.57
27715;BMP280;16051;53.024;8.630;2023-02-26T08:52:47;102368.09;;;1.82
27715;BMP280;16051;53.024;8.630;2023-02-26T08:56:49;102376.75;;;1.87
27715;BMP280;16051;53.024;8.630;2023-02-26T09:00:53;102384.25;;;1.97
27715;BMP280;16051;53.024;8.630;2023-02-26T09:04:56;102397.59;;;2.06
27715;BMP280;16051;53.024;8.630;2023-02-26T09:08:58;102392.97;;;2.10
27715;BMP280;16051;53.024;8.630;2023-02-26T09:13:00;102397.34;;;2.18
27715;BMP280;16051;53.024;8.630;2023-02-26T09:17:03;102400.22;;;2.32
27715;BMP280;16051;53.024;8.630;2023-02-26T09:21:07;102401.81;;;2.37
27715;BMP280;16051;53.024;8.630;2023-02-26T09:25:09;102406.69;;;2.58
27715;BMP280;16051;53.024;8.630;2023-02-26T09:29:12;102411.06;;;2.66
27715;BMP280;16051;53.024;8.630;2023-02-26T09:33:14;102408.09;;;2.85
27715;BMP280;16051;53.024;8.630;2023-02-26T09:37:18;102429.31;;;3.06
27715;BMP280;16051;53.024;8.630;2023-02-26T09:41:31;102432.66;;;3.32
27715;BMP280;16051;53.024;8.630;2023-02-26T09:45:49;102432.84;;;3.64
27715;BMP280;16051;53.024;8.630;2023-02-26T09:49:58;102446.59;;;3.85
27715;BMP280;16051;53.024;8.630;2023-02-26T09:54:14;102447.97;;;4.30
27715;BMP280;16051;53.024;8.630;2023-02-26T09:58:21;102458.53;;;4.42
27715;BMP280;16051;53.024;8.630;2023-02-26T10:02:37;102467.19;;;4.76
27715;BMP280;16051;53.024;8.630;2023-02-26T10:06:58;102472.69;;;4.80
27715;BMP280;16051;53.024;8.630;2023-02-26T10:11:14;102471.09;;;4.75
27715;BMP280;16051;53.024;8.630;2023-02-26T10:15:25;102475.41;;;4.66
27715;BMP280;16051;53.024;8.630;2023-02-26T10:19:37;102476.22;;;5.05
27715;BMP280;16051;53.024;8.630;2023-02-26T10:23:45;102480.13;;;5.22
27715;BMP280;16051;53.024;8.630;2023-02-26T10:28:01;102481.31;;;5.28
27715;BMP280;16051;53.024;8.630;2023-02-26T10:32:20;102499.28;;;5.43
27715;BMP280;16051;53.024;8.630;2023-02-26T10:36:27;102505.97;;;5.49
27715;BMP280;16051;53.024;8.630;2023-02-26T10:40:38;102514.91;;;5.85
27715;BMP280;16051;53.024;8.630;2023-02-26T10:44:55;102512.81;;;6.28
27715;BMP280;16051;53.024;8.630;2023-02-26T10:49:28;102514.09;;;6.82
27715;BMP280;16051;53.024;8.630;2023-02-26T10:53:36;102524.06;;;6.51
27715;BMP280;16051;53.024;8.630;2023-02-26T10:57:49;102523.38;;;6.36
27715;BMP280;16051;53.024;8.630;2023-02-26T11:02:00;102521.19;;;5.89
27715;BMP280;16051;53.024;8.630;2023-02-26T11:06:04;102524.97;;;6.30
27715;BMP280;16051;53.024;8.630;2023-02-26T11:10:16;102522.44;;;6.64
27715;BMP280;16051;53.024;8.630;2023-02-26T11:14:19;102527.44;;;6.87
27715;BMP280;16051;53.024;8.630;2023-02-26T11:18:35;102521.63;;;6.71
27715;BMP280;16051;53.024;8.630;2023-02-26T11:22:46;102526.22;;;6.08
27715;BMP280;16051;53.024;8.630;2023-02-26T11:26:59;102528.75;;;6.61
27715;BMP280;16051;53.024;8.630;2023-02-26T11:31:16;102524.81;;;6.59
27715;BMP280;16051;53.024;8.630;2023-02-26T11:35:30;102524.31;;;6.81
27715;BMP280;16051;53.024;8.630;2023-02-26T11:39:35;102530.00;;;7.12
27715;BMP280;16051;53.024;8.630;2023-02-26T11:43:44;102528.81;;;6.47
27715;BMP280;16051;53.024;8.630;2023-02-26T11:47:59;102524.97;;;7.00
27715;BMP280;16051;53.024;8.630;2023-02-26T11:52:20;102529.31;;;6.97
27715;BMP280;16051;53.024;8.630;2023-02-26T11:56:29;102518.38;;;7.79
27715;BMP280;16051;53.024;8.630;2023-02-26T12:00:36;102509.94;;;7.59
27715;BMP280;16051;53.024;8.630;2023-02-26T12:04:43;102500.22;;;7.88
27715;BMP280;16051;53.024;8.630;2023-02-26T12:08:47;102501.81;;;8.20
27715;BMP280;16051;53.024;8.630;2023-02-26T12:13:07;102503.97;;;8.39
27715;BMP280;16051;53.024;8.630;2023-02-26T12:17:34;102502.94;;;7.51
27715;BMP280;16051;53.024;8.630;2023-02-26T12:22:13;102512.06;;;7.45
27715;BMP280;16051;53.024;8.630;2023-02-26T12:26:27;102508.94;;;7.80
27715;BMP280;16051;53.024;8.630;2023-02-26T12:30:59;102519.06;;;7.90
27715;BMP280;16051;53.024;8.630;2023-02-26T12:35:41;102512.84;;;7.82
27715;BMP280;16051;53.024;8.630;2023-02-26T12:40:22;102509.84;;;8.04
27715;BMP280;16051;53.024;8.630;2023-02-26T12:44:55;102517.19;;;8.17
27715;BMP280;16051;53.024;8.630;2023-02-26T12:49:52;102517.38;;;8.64
27715;BMP280;16051;53.024;8.630;2023-02-26T12:54:25;102503.72;;;7.89
27715;BMP280;16051;53.024;8.630;2023-02-26T12:58:49;102518.75;;;7.40
27715;BMP280;16051;53.024;8.630;2023-02-26T13:08:01;102493.00;;;7.64
27715;BMP280;16051;53.024;8.630;2023-02-26T13:12:22;102513.84;;;7.62
27715;BMP280;16051;53.024;8.630;2023-02-26T13:16:51;102508.28;;;7.69
27715;BMP280;16051;53.024;8.630;2023-02-26T13:21:04;102507.09;;;7.70
27715;BMP280;16051;53.024;8.630;2023-02-26T13:25:37;102502.34;;;7.74
27715;BMP280;16051;53.024;8.630;2023-02-26T13:30:12;102506.78;;;7.20
27715;BMP280;16051;53.024;8.630;2023-02-26T13:34:34;102506.13;;;7.46
27715;BMP280;16051;53.024;8.630;2023-02-26T13:39:15;102503.47;;;7.76
27715;BMP280;16051;53.024;8.630;2023-02-26T13:43:49;102511.63;;;7.87
27715;BMP280;16051;53.024;8.630;2023-02-26T13:48:11;102498.94;;;7.59
27715;BMP280;16051;53.024;8.630;2023-02-26T13:52:33;102508.28;;;7.24
27715;BMP280;16051;53.024;8.630;2023-02-26T13:56:52;102511.19;;;7.07
27715;BMP280;16051;53.024;8.630;2023-02-26T14:01:09;102504.00;;;7.23
27715;BMP280;16051;53.024;8.630;2023-02-26T14:05:51;102506.19;;;6.87
27715;BMP280;16051;53.024;8.630;2023-02-26T14:10:16;102505.31;;;7.05
27715;BMP280;16051;53.024;8.630;2023-02-26T14:14:38;102483.53;;;7.24
27715;BMP280;16051;53.024;8.630;2023-02-26T14:18:49;102485.06;;;7.32
27715;BMP280;16051;53.024;8.630;2023-02-26T14:23:34;102497.81;;;7.12
27715;BMP280;16051;53.024;8.630;2023-02-26T14:27:39;102493.81;;;7.17
27715;BMP280;16051;53.024;8.630;2023-02-26T14:32:04;102506.13;;;7.02
27715;BMP280;16051;53.024;8.630;2023-02-26T14:36:19;102497.66;;;6.75
27715;BMP280;16051;53.024;8.630;2023-02-26T14:40:22;102488.63;;;6.78
27715;BMP280;16051;53.024;8.630;2023-02-26T14:44:29;102498.19;;;6.52
27715;BMP280;16051;53.024;8.630;2023-02-26T14:48:35;102499.81;;;6.46
27715;BMP280;16051;53.024;8.630;2023-02-26T14:52:53;102498.59;;;6.51
27715;BMP280;16051;53.024;8.630;2023-02-26T14:57:09;102494.94;;;6.71
27715;BMP280;16051;53.024;8.630;2023-02-26T15:01:38;102496.59;;;6.62
27715;BMP280;16051;53.024;8.630;2023-02-26T15:05:59;102506.47;;;6.41
27715;BMP280;16051;53.024;8.630;2023-02-26T15:10:36;102514.41;;;6.25
27715;BMP280;16051;53.024;8.630;2023-02-26T15:15:11;102509.78;;;6.01
27715;BMP280;16051;53.024;8.630;2023-02-26T15:19:41;102508.25;;;5.97
27715;BMP280;16051;53.024;8.630;2023-02-26T15:23:52;102514.13;;;5.81
27715;BMP280;16051;53.024;8.630;2023-02-26T15:27:56;102507.09;;;5.69
27715;BMP280;16051;53.024;8.630;2023-02-26T15:32:05;102516.91;;;5.67
27715;BMP280;16051;53.024;8.630;2023-02-26T15:36:14;102514.13;;;5.88
27715;BMP280;16051;53.024;8.630;2023-02-26T15:40:19;102518.78;;;6.09
27715;BMP280;16051;53.024;8.630;2023-02-26T15:44:26;102525.06;;;6.06
27715;BMP280;16051;53.024;8.630;2023-02-26T15:48:32;102518.81;;;5.94
27715;BMP280;16051;53.024;8.630;2023-02-26T15:52:37;102530.97;;;5.86
27715;BMP280;16051;53.024;8.630;2023-02-26T15:56:40;102520.41;;;5.92
27715;BMP280;16051;53.024;8.630;2023-02-26T16:00:51;102528.22;;;5.93
27715;BMP280;16051;53.024;8.630;2023-02-26T16:05:05;102534.88;;;6.03
27715;BMP280;16051;53.024;8.630;2023-02-26T16:09:19;102536.88;;;5.88
27715;BMP280;16051;53.024;8.630;2023-02-26T16:13:31;102539.19;;;5.83
27715;BMP280;16051;53.024;8.630;2023-02-26T16:18:05;102544.66;;;5.83
27715;BMP280;16051;53.024;8.630;2023-02-26T16:22:24;102545.47;;;5.73
27715;BMP280;16051;53.024;8.630;2023-02-26T16:26:45;102534.91;;;5.61
27715;BMP280;16051;53.024;8.630;2023-02-26T16:31:29;102546.69;;;5.36
27715;BMP280;16051;53.024;8.630;2023-02-26T16:35:45;102544.34;;;5.35
27715;BMP280;16051;53.024;8.630;2023-02-26T16:44:47;102552.56;;;5.35
27715;BMP280;16051;53.024;8.630;2023-02-26T16:48:54;102557.25;;;5.13
27715;BMP280;16051;53.024;8.630;2023-02-26T16:53:07;102566.63;;;5.12
27715;BMP280;16051;53.024;8.630;2023-02-26T16:57:18;102568.59;;;5.15
27715;BMP280;16051;53.024;8.630;2023-02-26T17:01:38;102579.53;;;5.01
27715;BMP280;16051;53.024;8.630;2023-02-26T17:05:56;102595.53;;;4.88
27715;BMP280;16051;53.024;8.630;2023-02-26T17:10:07;102584.16;;;4.72
27715;BMP280;16051;53.024;8.630;2023-02-26T17:14:14;102595.16;;;4.90
27715;BMP280;16051;53.024;8.630;2023-02-26T17:18:21;102593.53;;;4.78
27715;BMP280;16051;53.024;8.630;2023-02-26T17:22:27;102603.34;;;4.83
27715;BMP280;16051;53.024;8.630;2023-02-26T17:26:36;102606.88;;;4.83
27715;BMP280;16051;53.024;8.630;2023-02-26T17:30:38;102611.19;;;4.84
27715;BMP280;16051;53.024;8.630;2023-02-26T17:34:40;102610.03;;;4.96
27715;BMP280;16051;53.024;8.630;2023-02-26T17:38:45;102617.81;;;4.80
27715;BMP280;16051;53.024;8.630;2023-02-26T17:42:48;102616.13;;;4.54
27715;BMP280;16051;53.024;8.630;2023-02-26T17:46:56;102616.16;;;4.58
27715;BMP280;16051;53.024;8.630;2023-02-26T17:51:11;102625.91;;;4.52
27715;BMP280;16051;53.024;8.630;2023-02-26T17:55:16;102634.53;;;4.61
27715;BMP280;16051;53.024;8.630;2023-02-26T17:59:18;102640.81;;;4.61
27715;BMP280;16051;53.024;8.630;2023-02-26T18:03:22;102643.88;;;4.53
27715;BMP280;16051;53.024;8.630;2023-02-26T18:07:25;102648.97;;;4.51
27715;BMP280;16051;53.024;8.630;2023-02-26T18:11:34;102644.22;;;4.37
27715;BMP280;16051;53.024;8.630;2023-02-26T18:15:36;102650.47;;;4.37
27715;BMP280;16051;53.024;8.630;2023-02-26T18:19:51;102650.00;;;4.25
27715;BMP280;16051;53.024;8.630;2023-02-26T18:23:53;102657.00;;;4.22
27715;BMP280;16051;53.024;8.630;2023-02-26T18:28:02;102660.09;;;4.17
27715;BMP280;16051;53.024;8.630;2023-02-26T18:32:05;102655.00;;;4.12
27715;BMP280;16051;53.024;8.630;2023-02-26T18:36:23;102662.72;;;4.00
27715;BMP280;16051;53.024;8.630;2023-02-26T18:40:37;102664.53;;;3.85
27715;BMP280;16051;53.024;8.630;2023-02-26T18:44:41;102665.31;;;3.82
27715;BMP280;16051;53.024;8.630;2023-02-26T18:49:15;102673.50;;;3.82
27715;BMP280;16051;53.024;8.630;2023-02-26T18:53:18;102673.44;;;3.75
27715;BMP280;16051;53.024;8.630;2023-02-26T18:57:26;102680.38;;;3.62
27715;BMP280;16051;53.024;8.630;2023-02-26T19:01:35;102685.88;;;3.65
27715;BMP280;16051;53.024;8.630;2023-02-26T19:05:38;102681.81;;;3.52
27715;BMP280;16051;53.024;8.630;2023-02-26T19:09:40;102682.63;;;3.53
27715;BMP280;16051;53.024;8.630;2023-02-26T19:13:42;102682.97;;;3.51
27715;BMP280;16051;53.024;8.630;2023-02-26T19:17:46;102677.47;;;3.47
27715;BMP280;16051;53.024;8.630;2023-02-26T19:22:19;102687.56;;;3.40
27715;BMP280;16051;53.024;8.630;2023-02-26T19:26:29;102688.31;;;3.37
27715;BMP280;16051;53.024;8.630;2023-02-26T19:30:31;102696.34;;;3.23
27715;BMP280;16051;53.024;8.630;2023-02-26T19:34:41;102699.03;;;3.19
27715;BMP280;16051;53.024;8.630;2023-02-26T19:38:43;102706.00;;;3.13
27715;BMP280;16051;53.024;8.630;2023-02-26T19:42:47;102696.91;;;3.02
27715;BMP280;16051;53.024;8.630;2023-02-26T19:46:50;102697.88;;;2.87
27715;BMP280;16051;53.024;8.630;2023-02-26T19:50:56;102690.03;;;2.82
27715;BMP280;16051;53.024;8.630;2023-02-26T19:54:59;102690.69;;;2.75
27715;BMP280;16051;53.024;8.630;2023-02-26T19:59:01;102699.47;;;2.62
27715;BMP280;16051;53.024;8.630;2023-02-26T20:03:04;102709.06;;;2.48
27715;BMP280;16051;53.024;8.630;2023-02-26T20:07:07;102714.81;;;2.43
27715;BMP280;16051;53.024;8.630;2023-02-26T20:11:10;102714.31;;;2.34
27715;BMP280;16051;53.024;8.630;2023-02-26T20:15:12;102722.28;;;2.20
27715;BMP280;16051;53.024;8.630;2023-02-26T20:19:15;102726.09;;;2.16
27715;BMP280;16051;53.024;8.630;2023-02-26T20:23:19;102736.88;;;2.09
27715;BMP280;16051;53.024;8.630;2023-02-26T20:27:21;102743.38;;;2.01
27715;BMP280;16051;53.024;8.630;2023-02-26T20:31:29;102751.44;;;1.93
27715;BMP280;16051;53.024;8.630;2023-02-26T20:35:41;102757.53;;;1.87
27715;BMP280;16051;53.024;8.630;2023-02-26T20:40:08;102759.81;;;1.85
27715;BMP280;16051;53.024;8.630;2023-02-26T20:44:10;102758.16;;;1.77
27715;BMP280;16051;53.024;8.630;2023-02-26T20:48:12;102756.72;;;1.64
27715;BMP280;16051;53.024;8.630;2023-02-26T20:52:14;102766.88;;;1.67
27715;BMP280;16051;53.024;8.630;2023-02-26T20:56:18;102760.69;;;1.66
27715;BMP280;16051;53.024;8.630;2023-02-26T21:00:28;102760.63;;;1.63
27715;BMP280;16051;53.024;8.630;2023-02-26T21:04:31;102774.16;;;1.59
27715;BMP280;16051;53.024;8.630;2023-02-26T21:08:33;102769.34;;;1.53
27715;BMP280;16051;53.024;8.630;2023-02-26T21:12:37;102777.09;;;1.51
27715;BMP280;16051;53.024;8.630;2023-02-26T21:16:39;102780.84;;;1.42
27715;BMP280;16051;53.024;8.630;2023-02-26T21:20:52;102774.44;;;1.35
27715;BMP280;16051;53.024;8.630;2023-02-26T21:24:54;102773.03;;;1.22
27715;BMP280;16051;53.024;8.630;2023-02-26T21:28:57;102772.50;;;1.16
27715;BMP280;16051;53.024;8.630;2023-02-26T21:33:12;102788.34;;;1.11
27715;BMP280;16051;53.024;8.630;2023-02-26T21:37:15;102784.03;;;1.10
27715;BMP280;16051;53.024;8.630;2023-02-26T21:41:17;102782.75;;;1.04
27715;BMP280;16051;53.024;8.630;2023-02-26T21:45:21;102782.31;;;1.02
27715;BMP280;16051;53.024;8.630;2023-02-26T21:49:24;102795.84;;;0.98
27715;BMP280;16051;53.024;8.630;2023-02-26T21:53:26;102791.91;;;0.95
27715;BMP280;16051;53.024;8.630;2023-02-26T21:57:29;102787.91;;;0.89
27715;BMP280;16051;53.024;8.630;2023-02-26T22:01:33;102795.53;;;0.84
27715;BMP280;16051;53.024;8.630;2023-02-26T22:05:35;102800.47;;;0.78
27715;BMP280;16051;53.024;8.630;2023-02-26T22:09:50;102792.94;;;0.72
27715;BMP280;16051;53.024;8.630;2023-02-26T22:13:52;102794.41;;;0.69
27715;BMP280;16051;53.024;8.630;2023-02-26T22:17:55;102790.06;;;0.65
27715;BMP280;16051;53.024;8.630;2023-02-26T22:21:57;102799.28;;;0.60
27715;BMP280;16051;53.024;8.630;2023-02-26T22:26:05;102801.53;;;0.58
27715;BMP280;16051;53.024;8.630;2023-02-26T22:30:10;102795.75;;;0.60
27715;BMP280;16051;53.024;8.630;2023-02-26T22:34:13;102800.41;;;0.59
27715;BMP280;16051;53.024;8.630;2023-02-26T22:38:17;102807.78;;;0.59
27715;BMP280;16051;53.024;8.630;2023-02-26T22:42:19;102807.25;;;0.53
27715;BMP280;16051;53.024;8.630;2023-02-26T22:46:21;102820.06;;;0.53
27715;BMP280;16051;53.024;8.630;2023-02-26T22:50:25;102818.06;;;0.49
27715;BMP280;16051;53.024;8.630;2023-02-26T22:54:27;102801.81;;;0.37
27715;BMP280;16051;53.024;8.630;2023-02-26T22:59:01;102818.41;;;0.48
27715;BMP280;16051;53.024;8.630;2023-02-26T23:03:03;102822.63;;;0.45
27715;BMP280;16051;53.024;8.630;2023-02-26T23:07:07;102813.59;;;0.41
27715;BMP280;16051;53.024;8.630;2023-02-26T23:11:16;102826.75;;;0.39
27715;BMP280;16051;53.024;8.630;2023-02-26T23:15:19;102823.16;;;0.35
27715;BMP280;16051;53.024;8.630;2023-02-26T23:19:21;102826.56;;;0.32
27715;BMP280;16051;53.024;8.630;2023-02-26T23:23:31;102827.25;;;0.29
27715;BMP280;16051;53.024;8.630;2023-02-26T23:27:34;102820.75;;;0.18
27715;BMP280;16051;53.024;8.630;2023-02-26T23:31:36;102818.66;;;0.12
27715;BMP280;16051;53.024;8.630;2023-02-26T23:35:39;102831.03;;;0.09
27715;BMP280;16051;53.024;8.630;2023-02-26T23:39:49;102827.88;;;0.07
27715;BMP280;16051;53.024;8.630;2023-02-26T23:43:51;102827.69;;;0.00
27715;BMP280;16051;53.024;8.630;2023-02-26T23:47:53;102830.88;;;-0.10
27715;BMP280;16051;53.024;8.630;2023-02-26T23:51:55;102843.59;;;-0.14
27715;BMP280;16051;53.024;8.630;2023-02-26T23:55:59;102852.81;;;-0.19
